Terminal Aerodrome Forecast
Issued by NWS Atlanta, GA

Home | Current Version | Previous Version | Text Only | Print | Product List | Glossary On
Versions: 1 2 3 4 5 6 7 8 9 10 11 12 13 14
000
FTUS42 KFFC 281722
TAFMCN
TAF
KMCN 281722Z 2818/2918 27015G21KT P6SM SCT050
     FM290100 25004KT P6SM SCT100
     FM291000 25005KT P6SM SCT025
     FM291400 24007KT P6SM SCT035 SCT150=

USA.gov is the U.S. government's official web portal to all federal, state and local government web resources and services.